sensor_id;sensor_type;location;lat;lon;timestamp;temperature;humidity
10512;DHT22;5304;48.604;2.096;2023-11-22T04:53:24;7.90;99.90
10512;DHT22;5304;48.604;2.096;2023-11-22T04:56:08;8.00;99.90
10512;DHT22;5304;48.604;2.096;2023-11-22T04:58:53;8.00;99.90
10512;DHT22;5304;48.604;2.096;2023-11-22T05:01:37;8.10;99.90
10512;DHT22;5304;48.604;2.096;2023-11-22T05:04:22;8.20;99.90
10512;DHT22;5304;48.604;2.096;2023-11-22T05:07:06;8.10;99.90
10512;DHT22;5304;48.604;2.096;2023-11-22T05:09:51;8.10;99.90
10512;DHT22;5304;48.604;2.096;2023-11-22T05:12:35;8.10;99.90
10512;DHT22;5304;48.604;2.096;2023-11-22T05:15:20;8.00;99.90
10512;DHT22;5304;48.604;2.096;2023-11-22T05:18:04;7.90;99.90
10512;DHT22;5304;48.604;2.096;2023-11-22T05:20:50;7.90;99.90
10512;DHT22;5304;48.604;2.096;2023-11-22T05:23:34;7.80;99.90
10512;DHT22;5304;48.604;2.096;2023-11-22T05:26:18;7.70;99.90
10512;DHT22;5304;48.604;2.096;2023-11-22T05:29:03;7.60;99.90
10512;DHT22;5304;48.604;2.096;2023-11-22T05:31:49;7.60;99.90
10512;DHT22;5304;48.604;2.096;2023-11-22T05:34:33;7.50;99.90
10512;DHT22;5304;48.604;2.096;2023-11-22T05:37:18;7.50;99.90
10512;DHT22;5304;48.604;2.096;2023-11-22T05:40:04;7.40;99.90
10512;DHT22;5304;48.604;2.096;2023-11-22T05:42:48;7.30;99.90
10512;DHT22;5304;48.604;2.096;2023-11-22T05:45:33;7.20;99.90
10512;DHT22;5304;48.604;2.096;2023-11-22T05:48:17;7.20;99.90
10512;DHT22;5304;48.604;2.096;2023-11-22T05:51:03;7.10;99.90
10512;DHT22;5304;48.604;2.096;2023-11-22T05:53:47;7.10;99.90
10512;DHT22;5304;48.604;2.096;2023-11-22T05:56:31;7.10;99.90
10512;DHT22;5304;48.604;2.096;2023-11-22T05:59:15;7.00;99.90
10512;DHT22;5304;48.604;2.096;2023-11-22T06:02:00;7.00;99.90
10512;DHT22;5304;48.604;2.096;2023-11-22T06:04:44;6.90;99.90
10512;DHT22;5304;48.604;2.096;2023-11-22T06:07:28;6.80;99.90
10512;DHT22;5304;48.604;2.096;2023-11-22T06:10:13;6.80;99.90
10512;DHT22;5304;48.604;2.096;2023-11-22T06:12:58;6.80;99.90
10512;DHT22;5304;48.604;2.096;2023-11-22T06:15:42;6.80;99.90
10512;DHT22;5304;48.604;2.096;2023-11-22T06:18:26;6.80;99.90
10512;DHT22;5304;48.604;2.096;2023-11-22T06:21:15;6.80;99.90
10512;DHT22;5304;48.604;2.096;2023-11-22T06:23:59;6.70;99.90
10512;DHT22;5304;48.604;2.096;2023-11-22T06:26:44;6.70;99.90
10512;DHT22;5304;48.604;2.096;2023-11-22T06:29:30;6.70;99.90
10512;DHT22;5304;48.604;2.096;2023-11-22T06:32:14;6.60;99.90
10512;DHT22;5304;48.604;2.096;2023-11-22T06:34:59;6.50;99.90
10512;DHT22;5304;48.604;2.096;2023-11-22T06:37:43;6.50;99.90
10512;DHT22;5304;48.604;2.096;2023-11-22T06:40:28;6.50;99.90
10512;DHT22;5304;48.604;2.096;2023-11-22T06:43:13;6.40;99.90
10512;DHT22;5304;48.604;2.096;2023-11-22T06:45:58;6.50;99.90
10512;DHT22;5304;48.604;2.096;2023-11-22T06:48:42;6.50;99.90
10512;DHT22;5304;48.604;2.096;2023-11-22T06:51:29;6.40;99.90
10512;DHT22;5304;48.604;2.096;2023-11-22T06:54:14;6.40;99.90
10512;DHT22;5304;48.604;2.096;2023-11-22T06:56:58;6.30;99.90
10512;DHT22;5304;48.604;2.096;2023-11-22T06:59:43;6.20;99.90
10512;DHT22;5304;48.604;2.096;2023-11-22T07:02:28;6.30;99.90
10512;DHT22;5304;48.604;2.096;2023-11-22T07:05:12;6.20;99.90
10512;DHT22;5304;48.604;2.096;2023-11-22T07:07:56;6.20;99.90
10512;DHT22;5304;48.604;2.096;2023-11-22T07:10:40;6.30;99.90
10512;DHT22;5304;48.604;2.096;2023-11-22T07:13:24;6.10;99.90
10512;DHT22;5304;48.604;2.096;2023-11-22T07:16:09;6.10;99.90
10512;DHT22;5304;48.604;2.096;2023-11-22T07:18:54;6.00;99.90
10512;DHT22;5304;48.604;2.096;2023-11-22T07:21:38;5.90;99.90
10512;DHT22;5304;48.604;2.096;2023-11-22T07:24:24;5.90;99.90
10512;DHT22;5304;48.604;2.096;2023-11-22T07:27:08;5.90;99.90
10512;DHT22;5304;48.604;2.096;2023-11-22T07:29:56;5.90;99.90
10512;DHT22;5304;48.604;2.096;2023-11-22T07:32:40;6.00;99.90
10512;DHT22;5304;48.604;2.096;2023-11-22T07:35:24;6.00;99.90
10512;DHT22;5304;48.604;2.096;2023-11-22T07:38:10;6.00;99.90
10512;DHT22;5304;48.604;2.096;2023-11-22T07:40:55;6.00;99.90
10512;DHT22;5304;48.604;2.096;2023-11-22T07:43:40;6.10;99.90
10512;DHT22;5304;48.604;2.096;2023-11-22T07:46:24;6.30;99.90
10512;DHT22;5304;48.604;2.096;2023-11-22T07:49:09;6.40;99.90
10512;DHT22;5304;48.604;2.096;2023-11-22T07:51:54;6.50;99.90
10512;DHT22;5304;48.604;2.096;2023-11-22T07:54:38;6.60;99.90
10512;DHT22;5304;48.604;2.096;2023-11-22T07:57:23;6.70;99.90
10512;DHT22;5304;48.604;2.096;2023-11-22T08:00:08;6.80;99.90
10512;DHT22;5304;48.604;2.096;2023-11-22T08:02:52;6.80;99.90
10512;DHT22;5304;48.604;2.096;2023-11-22T08:05:38;6.90;99.90
10512;DHT22;5304;48.604;2.096;2023-11-22T08:08:24;7.00;99.90
10512;DHT22;5304;48.604;2.096;2023-11-22T08:11:10;7.10;99.90
10512;DHT22;5304;48.604;2.096;2023-11-22T08:14:03;7.10;99.90
10512;DHT22;5304;48.604;2.096;2023-11-22T08:16:47;7.20;99.90
10512;DHT22;5304;48.604;2.096;2023-11-22T08:19:32;7.30;99.90
10512;DHT22;5304;48.604;2.096;2023-11-22T08:22:16;7.40;99.90
10512;DHT22;5304;48.604;2.096;2023-11-22T08:25:02;7.50;99.90
10512;DHT22;5304;48.604;2.096;2023-11-22T08:27:48;7.60;99.90
10512;DHT22;5304;48.604;2.096;2023-11-22T08:30:32;7.50;99.90
10512;DHT22;5304;48.604;2.096;2023-11-22T08:33:19;7.50;99.90
10512;DHT22;5304;48.604;2.096;2023-11-22T08:36:05;7.30;99.90
10512;DHT22;5304;48.604;2.096;2023-11-22T08:38:49;7.30;99.90
10512;DHT22;5304;48.604;2.096;2023-11-22T08:41:34;7.30;99.90
10512;DHT22;5304;48.604;2.096;2023-11-22T08:44:18;7.30;99.90
10512;DHT22;5304;48.604;2.096;2023-11-22T08:47:03;7.40;99.90
10512;DHT22;5304;48.604;2.096;2023-11-22T08:49:48;7.50;99.90
10512;DHT22;5304;48.604;2.096;2023-11-22T08:52:32;7.70;99.90
10512;DHT22;5304;48.604;2.096;2023-11-22T08:55:16;7.80;99.90
10512;DHT22;5304;48.604;2.096;2023-11-22T08:58:00;8.20;99.90
10512;DHT22;5304;48.604;2.096;2023-11-22T09:00:45;8.50;99.90
10512;DHT22;5304;48.604;2.096;2023-11-22T09:03:29;9.00;99.90
10512;DHT22;5304;48.604;2.096;2023-11-22T09:06:14;9.40;99.90
10512;DHT22;5304;48.604;2.096;2023-11-22T09:08:58;9.60;99.90
10512;DHT22;5304;48.604;2.096;2023-11-22T09:11:42;9.90;99.90
10512;DHT22;5304;48.604;2.096;2023-11-22T09:14:27;10.20;99.90
10512;DHT22;5304;48.604;2.096;2023-11-22T09:17:12;10.40;99.90
10512;DHT22;5304;48.604;2.096;2023-11-22T09:19:57;10.70;99.90
10512;DHT22;5304;48.604;2.096;2023-11-22T09:22:47;10.60;99.90
10512;DHT22;5304;48.604;2.096;2023-11-22T09:25:34;10.50;99.90
10512;DHT22;5304;48.604;2.096;2023-11-22T09:28:19;10.20;99.90
10512;DHT22;5304;48.604;2.096;2023-11-22T09:31:05;10.20;99.90
10512;DHT22;5304;48.604;2.096;2023-11-22T09:33:50;9.90;99.90
10512;DHT22;5304;48.604;2.096;2023-11-22T09:36:35;9.50;99.90
10512;DHT22;5304;48.604;2.096;2023-11-22T09:39:19;9.80;99.90
10512;DHT22;5304;48.604;2.096;2023-11-22T09:42:05;10.40;99.90
10512;DHT22;5304;48.604;2.096;2023-11-22T09:44:49;10.60;99.90
10512;DHT22;5304;48.604;2.096;2023-11-22T09:47:34;10.50;99.90
10512;DHT22;5304;48.604;2.096;2023-11-22T09:56:38;10.90;99.90
10512;DHT22;5304;48.604;2.096;2023-11-22T09:59:23;10.80;99.90
10512;DHT22;5304;48.604;2.096;2023-11-22T10:02:08;10.70;99.90
10512;DHT22;5304;48.604;2.096;2023-11-22T10:04:54;10.50;99.90
10512;DHT22;5304;48.604;2.096;2023-11-22T10:07:38;10.30;99.90
10512;DHT22;5304;48.604;2.096;2023-11-22T10:10:22;10.10;99.90
10512;DHT22;5304;48.604;2.096;2023-11-22T10:13:10;10.00;99.90
10512;DHT22;5304;48.604;2.096;2023-11-22T10:16:12;9.90;99.90
10512;DHT22;5304;48.604;2.096;2023-11-22T10:18:57;10.00;99.90
10512;DHT22;5304;48.604;2.096;2023-11-22T10:21:42;10.00;99.90
10512;DHT22;5304;48.604;2.096;2023-11-22T10:24:30;10.10;99.90
10512;DHT22;5304;48.604;2.096;2023-11-22T10:27:17;9.90;99.90
10512;DHT22;5304;48.604;2.096;2023-11-22T10:30:02;9.90;99.90
10512;DHT22;5304;48.604;2.096;2023-11-22T10:32:46;10.00;99.90
10512;DHT22;5304;48.604;2.096;2023-11-22T10:35:31;10.10;99.90
10512;DHT22;5304;48.604;2.096;2023-11-22T10:38:19;10.30;99.90
10512;DHT22;5304;48.604;2.096;2023-11-22T10:41:08;10.40;99.90
10512;DHT22;5304;48.604;2.096;2023-11-22T10:43:52;10.60;99.90
10512;DHT22;5304;48.604;2.096;2023-11-22T10:46:40;10.70;99.90
10512;DHT22;5304;48.604;2.096;2023-11-22T10:49:24;10.90;99.90
10512;DHT22;5304;48.604;2.096;2023-11-22T10:52:13;11.00;99.90
10512;DHT22;5304;48.604;2.096;2023-11-22T10:55:02;11.10;99.90
10512;DHT22;5304;48.604;2.096;2023-11-22T10:57:51;10.80;99.90
10512;DHT22;5304;48.604;2.096;2023-11-22T11:00:36;10.70;99.90
10512;DHT22;5304;48.604;2.096;2023-11-22T11:03:24;10.80;99.90
10512;DHT22;5304;48.604;2.096;2023-11-22T11:06:12;10.90;99.90
10512;DHT22;5304;48.604;2.096;2023-11-22T11:09:03;10.80;99.90
10512;DHT22;5304;48.604;2.096;2023-11-22T11:11:56;10.60;99.90
10512;DHT22;5304;48.604;2.096;2023-11-22T11:14:41;10.70;99.90
10512;DHT22;5304;48.604;2.096;2023-11-22T11:17:26;10.90;99.90
10512;DHT22;5304;48.604;2.096;2023-11-22T11:20:12;11.10;99.90
10512;DHT22;5304;48.604;2.096;2023-11-22T11:22:57;11.10;99.90
10512;DHT22;5304;48.604;2.096;2023-11-22T11:25:41;11.00;99.90
10512;DHT22;5304;48.604;2.096;2023-11-22T11:28:26;11.10;99.90
10512;DHT22;5304;48.604;2.096;2023-11-22T11:31:11;11.10;99.90
10512;DHT22;5304;48.604;2.096;2023-11-22T11:33:55;10.90;99.90
10512;DHT22;5304;48.604;2.096;2023-11-22T11:36:40;10.90;99.90
10512;DHT22;5304;48.604;2.096;2023-11-22T11:39:26;11.10;99.90
10512;DHT22;5304;48.604;2.096;2023-11-22T11:42:14;11.30;99.90
10512;DHT22;5304;48.604;2.096;2023-11-22T11:45:05;11.20;99.90
10512;DHT22;5304;48.604;2.096;2023-11-22T11:47:50;11.10;99.90
10512;DHT22;5304;48.604;2.096;2023-11-22T11:50:35;11.00;99.90
10512;DHT22;5304;48.604;2.096;2023-11-22T11:53:19;10.90;99.90
10512;DHT22;5304;48.604;2.096;2023-11-22T11:56:04;10.70;99.90
10512;DHT22;5304;48.604;2.096;2023-11-22T11:58:49;10.60;99.90
10512;DHT22;5304;48.604;2.096;2023-11-22T12:01:34;10.60;99.90
10512;DHT22;5304;48.604;2.096;2023-11-22T12:04:18;10.70;99.90
10512;DHT22;5304;48.604;2.096;2023-11-22T12:07:02;10.80;99.90
10512;DHT22;5304;48.604;2.096;2023-11-22T12:09:46;10.90;99.90
10512;DHT22;5304;48.604;2.096;2023-11-22T12:12:32;10.90;99.90
10512;DHT22;5304;48.604;2.096;2023-11-22T12:15:17;10.90;99.90
10512;DHT22;5304;48.604;2.096;2023-11-22T12:18:02;10.80;99.90
10512;DHT22;5304;48.604;2.096;2023-11-22T12:20:58;10.90;99.90
10512;DHT22;5304;48.604;2.096;2023-11-22T12:23:43;11.10;99.90
10512;DHT22;5304;48.604;2.096;2023-11-22T12:26:29;11.20;99.90
10512;DHT22;5304;48.604;2.096;2023-11-22T12:29:16;11.20;99.90
10512;DHT22;5304;48.604;2.096;2023-11-22T12:32:02;11.20;99.90
10512;DHT22;5304;48.604;2.096;2023-11-22T12:34:46;11.10;99.90
10512;DHT22;5304;48.604;2.096;2023-11-22T12:37:33;11.20;99.90
10512;DHT22;5304;48.604;2.096;2023-11-22T12:40:20;11.30;99.90
10512;DHT22;5304;48.604;2.096;2023-11-22T12:43:04;11.40;99.90
10512;DHT22;5304;48.604;2.096;2023-11-22T12:46:02;11.50;99.90
10512;DHT22;5304;48.604;2.096;2023-11-22T12:48:46;11.50;99.90
10512;DHT22;5304;48.604;2.096;2023-11-22T12:51:30;11.50;99.90
10512;DHT22;5304;48.604;2.096;2023-11-22T12:54:15;11.60;99.90
10512;DHT22;5304;48.604;2.096;2023-11-22T12:56:59;11.50;99.90
10512;DHT22;5304;48.604;2.096;2023-11-22T12:59:43;11.50;99.90
10512;DHT22;5304;48.604;2.096;2023-11-22T13:02:28;11.50;99.90
10512;DHT22;5304;48.604;2.096;2023-11-22T13:05:12;11.60;99.90
10512;DHT22;5304;48.604;2.096;2023-11-22T13:07:59;11.70;99.90
10512;DHT22;5304;48.604;2.096;2023-11-22T13:10:44;11.60;99.90
10512;DHT22;5304;48.604;2.096;2023-11-22T13:13:29;11.50;99.90
10512;DHT22;5304;48.604;2.096;2023-11-22T13:16:14;11.60;99.90
10512;DHT22;5304;48.604;2.096;2023-11-22T13:19:00;11.50;99.90
10512;DHT22;5304;48.604;2.096;2023-11-22T13:21:44;11.40;99.90
10512;DHT22;5304;48.604;2.096;2023-11-22T13:24:28;11.30;99.90
10512;DHT22;5304;48.604;2.096;2023-11-22T13:27:13;11.30;99.90
10512;DHT22;5304;48.604;2.096;2023-11-22T13:29:57;11.40;99.90
10512;DHT22;5304;48.604;2.096;2023-11-22T13:32:42;11.50;99.90
10512;DHT22;5304;48.604;2.096;2023-11-22T13:35:28;11.40;99.90
10512;DHT22;5304;48.604;2.096;2023-11-22T13:38:15;11.40;99.90
10512;DHT22;5304;48.604;2.096;2023-11-22T13:41:00;11.30;99.90
10512;DHT22;5304;48.604;2.096;2023-11-22T13:43:45;11.20;99.90
10512;DHT22;5304;48.604;2.096;2023-11-22T13:46:31;11.30;99.90
10512;DHT22;5304;48.604;2.096;2023-11-22T13:49:15;11.30;99.90
10512;DHT22;5304;48.604;2.096;2023-11-22T13:51:59;11.20;99.90
10512;DHT22;5304;48.604;2.096;2023-11-22T13:54:43;11.00;99.90
10512;DHT22;5304;48.604;2.096;2023-11-22T13:57:30;11.00;99.90
10512;DHT22;5304;48.604;2.096;2023-11-22T14:00:16;11.10;99.90
10512;DHT22;5304;48.604;2.096;2023-11-22T14:03:07;11.00;99.90
10512;DHT22;5304;48.604;2.096;2023-11-22T14:05:51;11.10;99.90
10512;DHT22;5304;48.604;2.096;2023-11-22T14:08:35;11.00;99.90
10512;DHT22;5304;48.604;2.096;2023-11-22T14:11:20;10.90;99.90
10512;DHT22;5304;48.604;2.096;2023-11-22T14:14:05;10.90;99.90
10512;DHT22;5304;48.604;2.096;2023-11-22T14:16:49;10.90;99.90
10512;DHT22;5304;48.604;2.096;2023-11-22T14:19:34;11.00;99.90
10512;DHT22;5304;48.604;2.096;2023-11-22T14:22:18;11.00;99.90
10512;DHT22;5304;48.604;2.096;2023-11-22T14:25:05;11.00;99.90
10512;DHT22;5304;48.604;2.096;2023-11-22T14:27:56;11.00;99.90
10512;DHT22;5304;48.604;2.096;2023-11-22T14:30:41;11.10;99.90
10512;DHT22;5304;48.604;2.096;2023-11-22T14:33:26;11.00;99.90
10512;DHT22;5304;48.604;2.096;2023-11-22T14:36:15;11.00;99.90
10512;DHT22;5304;48.604;2.096;2023-11-22T14:39:00;10.90;99.90
10512;DHT22;5304;48.604;2.096;2023-11-22T14:41:44;10.70;99.90
10512;DHT22;5304;48.604;2.096;2023-11-22T14:44:29;10.60;99.90
10512;DHT22;5304;48.604;2.096;2023-11-22T14:47:15;10.50;99.90
10512;DHT22;5304;48.604;2.096;2023-11-22T14:50:03;10.60;99.90
10512;DHT22;5304;48.604;2.096;2023-11-22T14:52:49;10.50;99.90
10512;DHT22;5304;48.604;2.096;2023-11-22T14:55:34;10.40;99.90
10512;DHT22;5304;48.604;2.096;2023-11-22T14:58:22;10.30;99.90
10512;DHT22;5304;48.604;2.096;2023-11-22T15:01:07;10.10;99.90
10512;DHT22;5304;48.604;2.096;2023-11-22T15:03:53;10.00;99.90
10512;DHT22;5304;48.604;2.096;2023-11-22T15:06:38;9.80;99.90
10512;DHT22;5304;48.604;2.096;2023-11-22T15:09:22;9.70;99.90
10512;DHT22;5304;48.604;2.096;2023-11-22T15:12:07;9.60;99.90
10512;DHT22;5304;48.604;2.096;2023-11-22T15:14:53;9.50;99.90
10512;DHT22;5304;48.604;2.096;2023-11-22T15:17:38;9.50;99.90
10512;DHT22;5304;48.604;2.096;2023-11-22T15:20:23;9.50;99.90
10512;DHT22;5304;48.604;2.096;2023-11-22T15:23:07;9.40;99.90
10512;DHT22;5304;48.604;2.096;2023-11-22T15:25:51;9.30;99.90
10512;DHT22;5304;48.604;2.096;2023-11-22T15:28:38;9.40;99.90
10512;DHT22;5304;48.604;2.096;2023-11-22T15:31:22;9.50;99.90
10512;DHT22;5304;48.604;2.096;2023-11-22T15:34:09;9.40;99.90
10512;DHT22;5304;48.604;2.096;2023-11-22T15:36:55;9.40;99.90
10512;DHT22;5304;48.604;2.096;2023-11-22T15:39:39;9.30;99.90
10512;DHT22;5304;48.604;2.096;2023-11-22T15:42:23;9.30;99.90
10512;DHT22;5304;48.604;2.096;2023-11-22T15:45:08;9.10;99.90
10512;DHT22;5304;48.604;2.096;2023-11-22T15:47:52;9.00;99.90
10512;DHT22;5304;48.604;2.096;2023-11-22T15:50:37;8.90;99.90
10512;DHT22;5304;48.604;2.096;2023-11-22T15:53:21;8.80;99.90
10512;DHT22;5304;48.604;2.096;2023-11-22T15:56:05;8.70;99.90
10512;DHT22;5304;48.604;2.096;2023-11-22T15:58:52;8.70;99.90
10512;DHT22;5304;48.604;2.096;2023-11-22T16:01:36;8.70;99.90
10512;DHT22;5304;48.604;2.096;2023-11-22T16:04:20;8.60;99.90
10512;DHT22;5304;48.604;2.096;2023-11-22T16:07:05;8.40;99.90
10512;DHT22;5304;48.604;2.096;2023-11-22T16:09:49;8.30;99.90
10512;DHT22;5304;48.604;2.096;2023-11-22T16:12:35;8.20;99.90
10512;DHT22;5304;48.604;2.096;2023-11-22T16:15:19;8.00;99.90
10512;DHT22;5304;48.604;2.096;2023-11-22T16:18:03;8.00;99.90
10512;DHT22;5304;48.604;2.096;2023-11-22T16:20:49;7.90;99.90
10512;DHT22;5304;48.604;2.096;2023-11-22T16:23:34;7.90;99.90
10512;DHT22;5304;48.604;2.096;2023-11-22T16:26:18;7.80;99.90
10512;DHT22;5304;48.604;2.096;2023-11-22T16:29:03;7.70;99.90
10512;DHT22;5304;48.604;2.096;2023-11-22T16:31:47;7.70;99.90
10512;DHT22;5304;48.604;2.096;2023-11-22T16:34:32;7.60;99.90
10512;DHT22;5304;48.604;2.096;2023-11-22T16:37:16;7.50;99.90
10512;DHT22;5304;48.604;2.096;2023-11-22T16:40:02;7.40;99.90
10512;DHT22;5304;48.604;2.096;2023-11-22T16:42:52;7.40;99.90
10512;DHT22;5304;48.604;2.096;2023-11-22T16:45:36;7.50;99.90
10512;DHT22;5304;48.604;2.096;2023-11-22T16:48:21;7.40;99.90
10512;DHT22;5304;48.604;2.096;2023-11-22T16:51:05;7.50;99.90
10512;DHT22;5304;48.604;2.096;2023-11-22T16:53:50;7.40;99.90
10512;DHT22;5304;48.604;2.096;2023-11-22T16:56:34;7.40;99.90
10512;DHT22;5304;48.604;2.096;2023-11-22T16:59:18;7.40;99.90
10512;DHT22;5304;48.604;2.096;2023-11-22T17:02:02;7.40;99.90
10512;DHT22;5304;48.604;2.096;2023-11-22T17:04:47;7.50;99.90
10512;DHT22;5304;48.604;2.096;2023-11-22T17:07:32;7.50;99.90
10512;DHT22;5304;48.604;2.096;2023-11-22T17:10:17;7.50;99.90
10512;DHT22;5304;48.604;2.096;2023-11-22T17:13:01;7.50;99.90
10512;DHT22;5304;48.604;2.096;2023-11-22T17:15:45;7.50;99.90
10512;DHT22;5304;48.604;2.096;2023-11-22T17:18:30;7.50;99.90
10512;DHT22;5304;48.604;2.096;2023-11-22T17:21:14;7.40;99.90
10512;DHT22;5304;48.604;2.096;2023-11-22T17:24:00;7.40;99.90
10512;DHT22;5304;48.604;2.096;2023-11-22T17:26:47;7.30;99.90
10512;DHT22;5304;48.604;2.096;2023-11-22T17:29:31;7.30;99.90
10512;DHT22;5304;48.604;2.096;2023-11-22T17:32:19;7.20;99.90
10512;DHT22;5304;48.604;2.096;2023-11-22T17:35:03;7.20;99.90
10512;DHT22;5304;48.604;2.096;2023-11-22T17:37:47;7.20;99.90
10512;DHT22;5304;48.604;2.096;2023-11-22T17:40:33;7.10;99.90
10512;DHT22;5304;48.604;2.096;2023-11-22T17:43:17;7.10;99.90
10512;DHT22;5304;48.604;2.096;2023-11-22T17:46:02;7.00;99.90
10512;DHT22;5304;48.604;2.096;2023-11-22T17:48:46;7.00;99.90
10512;DHT22;5304;48.604;2.096;2023-11-22T17:51:31;6.90;99.90
10512;DHT22;5304;48.604;2.096;2023-11-22T17:54:15;6.90;99.90
10512;DHT22;5304;48.604;2.096;2023-11-22T17:56:59;6.90;99.90
10512;DHT22;5304;48.604;2.096;2023-11-22T17:59:43;6.80;99.90
10512;DHT22;5304;48.604;2.096;2023-11-22T18:02:28;6.70;99.90
10512;DHT22;5304;48.604;2.096;2023-11-22T18:05:12;6.70;99.90
10512;DHT22;5304;48.604;2.096;2023-11-22T18:07:56;6.60;99.90
10512;DHT22;5304;48.604;2.096;2023-11-22T18:10:40;6.60;99.90
10512;DHT22;5304;48.604;2.096;2023-11-22T18:13:25;6.40;99.90
10512;DHT22;5304;48.604;2.096;2023-11-22T18:16:10;6.30;99.90
10512;DHT22;5304;48.604;2.096;2023-11-22T18:18:56;6.30;99.90
10512;DHT22;5304;48.604;2.096;2023-11-22T18:21:42;6.30;99.90
10512;DHT22;5304;48.604;2.096;2023-11-22T18:24:26;6.20;99.90
10512;DHT22;5304;48.604;2.096;2023-11-22T18:27:12;6.10;99.90
10512;DHT22;5304;48.604;2.096;2023-11-22T18:29:56;5.90;99.90
10512;DHT22;5304;48.604;2.096;2023-11-22T18:32:43;5.90;99.90
10512;DHT22;5304;48.604;2.096;2023-11-22T18:35:27;5.90;99.90
10512;DHT22;5304;48.604;2.096;2023-11-22T18:38:13;5.90;99.90
10512;DHT22;5304;48.604;2.096;2023-11-22T18:40:58;5.90;99.90
10512;DHT22;5304;48.604;2.096;2023-11-22T18:43:47;5.80;99.90
10512;DHT22;5304;48.604;2.096;2023-11-22T18:46:31;5.80;99.90
10512;DHT22;5304;48.604;2.096;2023-11-22T18:49:15;5.70;99.90
10512;DHT22;5304;48.604;2.096;2023-11-22T18:52:01;5.70;99.90
10512;DHT22;5304;48.604;2.096;2023-11-22T18:54:45;5.60;99.90
10512;DHT22;5304;48.604;2.096;2023-11-22T18:57:30;5.60;99.90
10512;DHT22;5304;48.604;2.096;2023-11-22T19:00:14;5.60;99.90
10512;DHT22;5304;48.604;2.096;2023-11-22T19:02:58;5.60;99.90
10512;DHT22;5304;48.604;2.096;2023-11-22T19:05:43;5.60;99.90
10512;DHT22;5304;48.604;2.096;2023-11-22T19:08:27;5.70;99.90
10512;DHT22;5304;48.604;2.096;2023-11-22T19:11:11;5.70;99.90
10512;DHT22;5304;48.604;2.096;2023-11-22T19:13:55;5.60;99.90
10512;DHT22;5304;48.604;2.096;2023-11-22T19:16:42;5.50;99.90
10512;DHT22;5304;48.604;2.096;2023-11-22T19:19:26;5.50;99.90
10512;DHT22;5304;48.604;2.096;2023-11-22T19:22:11;5.40;99.90
10512;DHT22;5304;48.604;2.096;2023-11-22T19:24:55;5.40;99.90
10512;DHT22;5304;48.604;2.096;2023-11-22T19:27:39;5.40;99.90
10512;DHT22;5304;48.604;2.096;2023-11-22T19:30:23;5.50;99.90
10512;DHT22;5304;48.604;2.096;2023-11-22T19:33:08;5.50;99.90
10512;DHT22;5304;48.604;2.096;2023-11-22T19:35:52;5.50;99.90
10512;DHT22;5304;48.604;2.096;2023-11-22T19:38:40;5.40;99.90
10512;DHT22;5304;48.604;2.096;2023-11-22T19:41:24;5.30;99.90
10512;DHT22;5304;48.604;2.096;2023-11-22T19:44:08;5.20;99.90
10512;DHT22;5304;48.604;2.096;2023-11-22T19:46:53;5.30;99.90
10512;DHT22;5304;48.604;2.096;2023-11-22T19:49:37;5.20;99.90
10512;DHT22;5304;48.604;2.096;2023-11-22T19:52:24;5.20;99.90
10512;DHT22;5304;48.604;2.096;2023-11-22T19:55:08;5.10;99.90
10512;DHT22;5304;48.604;2.096;2023-11-22T19:57:52;5.00;99.90
10512;DHT22;5304;48.604;2.096;2023-11-22T20:00:40;5.00;99.90
10512;DHT22;5304;48.604;2.096;2023-11-22T20:03:26;4.90;99.90
10512;DHT22;5304;48.604;2.096;2023-11-22T20:06:11;4.90;99.90
10512;DHT22;5304;48.604;2.096;2023-11-22T20:08:55;5.20;99.90
10512;DHT22;5304;48.604;2.096;2023-11-22T20:11:40;5.10;99.90
10512;DHT22;5304;48.604;2.096;2023-11-22T20:14:24;5.00;99.90
10512;DHT22;5304;48.604;2.096;2023-11-22T20:17:08;4.90;99.90
10512;DHT22;5304;48.604;2.096;2023-11-22T20:19:53;4.90;99.90
10512;DHT22;5304;48.604;2.096;2023-11-22T20:22:38;4.80;99.90
10512;DHT22;5304;48.604;2.096;2023-11-22T20:25:22;4.90;99.90
10512;DHT22;5304;48.604;2.096;2023-11-22T20:28:06;5.00;99.90
10512;DHT22;5304;48.604;2.096;2023-11-22T20:30:51;4.90;99.90
10512;DHT22;5304;48.604;2.096;2023-11-22T20:33:35;4.90;99.90
10512;DHT22;5304;48.604;2.096;2023-11-22T20:36:19;4.70;99.90
10512;DHT22;5304;48.604;2.096;2023-11-22T20:39:03;4.70;99.90
10512;DHT22;5304;48.604;2.096;2023-11-22T20:41:48;4.70;99.90
10512;DHT22;5304;48.604;2.096;2023-11-22T20:44:33;4.80;99.90
10512;DHT22;5304;48.604;2.096;2023-11-22T20:47:17;4.70;99.90
10512;DHT22;5304;48.604;2.096;2023-11-22T20:50:02;4.70;99.90
10512;DHT22;5304;48.604;2.096;2023-11-22T20:52:48;4.80;99.90
10512;DHT22;5304;48.604;2.096;2023-11-22T20:55:32;4.60;99.90
10512;DHT22;5304;48.604;2.096;2023-11-22T20:58:16;4.50;99.90
10512;DHT22;5304;48.604;2.096;2023-11-22T21:01:01;4.40;99.90
10512;DHT22;5304;48.604;2.096;2023-11-22T21:03:45;4.40;99.90
10512;DHT22;5304;48.604;2.096;2023-11-22T21:06:29;4.30;99.90
10512;DHT22;5304;48.604;2.096;2023-11-22T21:09:14;4.20;99.90
10512;DHT22;5304;48.604;2.096;2023-11-22T21:11:58;4.10;99.90
10512;DHT22;5304;48.604;2.096;2023-11-22T21:14:43;4.00;99.90
10512;DHT22;5304;48.604;2.096;2023-11-22T21:17:27;4.00;99.90
10512;DHT22;5304;48.604;2.096;2023-11-22T21:20:11;4.10;99.90
10512;DHT22;5304;48.604;2.096;2023-11-22T21:22:56;4.10;99.90
10512;DHT22;5304;48.604;2.096;2023-11-22T21:25:40;4.00;99.90
10512;DHT22;5304;48.604;2.096;2023-11-22T21:28:24;4.10;99.90
10512;DHT22;5304;48.604;2.096;2023-11-22T21:31:14;4.10;99.90
10512;DHT22;5304;48.604;2.096;2023-11-22T21:34:01;4.00;99.90
10512;DHT22;5304;48.604;2.096;2023-11-22T21:36:45;4.00;99.90
